Time;durP1;ratioP1;P1;durP2;ratioP2;P2;SDS_P1;SDS_P2;PMS_P1;PMS_P2;Temp;Humidity;BMP_temperature;BMP_pressure;BME280_temperature;BME280_humidity;BME280_pressure;Samples;Min_cycle;Max_cycle;Signal;HPM_P1;HPM_P2
2023/06/17 00:02:01;;;;;;;8.50;5.57;;;17.80;67.90;;;;;;4955193;28;20015;-72
2023/06/17 00:04:27;;;;;;;9.50;5.68;;;17.70;68.10;;;;;;4951748;28;20702;-72
2023/06/17 00:06:53;;;;;;;9.68;5.40;;;17.70;68.50;;;;;;4945205;28;20452;-72
2023/06/17 00:09:20;;;;;;;8.88;5.70;;;17.70;68.60;;;;;;4942618;29;20054;-72
2023/06/17 00:11:46;;;;;;;8.35;5.70;;;17.70;68.70;;;;;;4948455;28;20099;-72
2023/06/17 00:14:11;;;;;;;8.23;5.50;;;17.70;68.90;;;;;;4947464;28;20046;-72
2023/06/17 00:16:43;;;;;;;9.93;5.70;;;17.60;69.10;;;;;;4940490;28;20028;-72
2023/06/17 00:19:15;;;;;;;9.02;5.55;;;17.60;69.50;;;;;;4942208;28;20398;-72
2023/06/17 00:21:40;;;;;;;9.45;5.97;;;17.50;69.90;;;;;;4938140;29;20052;-72
2023/06/17 00:24:06;;;;;;;12.25;5.93;;;17.50;70.30;;;;;;4951438;29;20043;-72
2023/06/17 00:26:32;;;;;;;8.25;6.20;;;17.50;70.50;;;;;;4955133;28;20033;-72
2023/06/17 00:28:57;;;;;;;8.57;6.10;;;17.40;70.80;;;;;;4954215;28;20495;-72
2023/06/17 00:31:24;;;;;;;11.73;5.97;;;17.40;71.30;;;;;;4953865;28;20034;-72
2023/06/17 00:33:50;;;;;;;8.13;6.38;;;17.30;71.40;;;;;;4954828;28;20058;-72
2023/06/17 00:36:16;;;;;;;8.77;6.30;;;17.30;71.70;;;;;;4954568;28;20019;-72
2023/06/17 00:38:41;;;;;;;11.30;6.18;;;17.30;71.90;;;;;;4954910;28;20073;-72
2023/06/17 00:41:07;;;;;;;11.45;6.15;;;17.30;72.10;;;;;;4953840;28;20102;-72
2023/06/17 00:43:32;;;;;;;7.78;5.60;;;17.30;72.30;;;;;;4953543;28;20031;-72
2023/06/17 00:45:59;;;;;;;11.30;6.47;;;17.30;72.60;;;;;;4954688;28;20042;-72
2023/06/17 00:48:24;;;;;;;7.85;5.85;;;17.30;73.00;;;;;;4954617;28;20016;-73
2023/06/17 00:50:51;;;;;;;11.88;6.50;;;17.30;73.50;;;;;;4954885;28;20023;-72
2023/06/17 00:53:17;;;;;;;10.35;6.50;;;17.20;74.00;;;;;;4952343;28;20042;-72
2023/06/17 00:55:44;;;;;;;11.48;6.50;;;17.20;74.30;;;;;;4954663;28;20027;-73
2023/06/17 00:58:11;;;;;;;10.30;7.00;;;17.10;74.70;;;;;;4950010;28;20099;-72
2023/06/17 01:00:37;;;;;;;11.65;7.13;;;17.10;75.10;;;;;;4946847;29;20105;-72
2023/06/17 01:03:02;;;;;;;12.73;7.32;;;17.10;75.40;;;;;;4954561;28;20024;-73
2023/06/17 01:05:28;;;;;;;10.75;7.30;;;17.10;75.90;;;;;;4953840;28;20059;-72
2023/06/17 01:08:28;;;;;;;11.68;7.60;;;17.00;76.20;;;;;;4954566;28;20027;-72
2023/06/17 01:11:06;;;;;;;9.85;7.57;;;17.10;76.70;;;;;;4943834;29;20041;-73
2023/06/17 01:13:33;;;;;;;13.45;7.93;;;17.00;77.00;;;;;;4950471;28;20019;-72
2023/06/17 01:16:01;;;;;;;11.57;8.00;;;17.00;77.60;;;;;;4939683;28;20367;-73
2023/06/17 01:18:29;;;;;;;12.80;8.73;;;16.90;78.10;;;;;;4948517;28;20066;-73
2023/06/17 01:20:55;;;;;;;11.93;8.98;;;16.80;79.00;;;;;;4954267;28;20062;-72
2023/06/17 01:23:23;;;;;;;15.00;8.93;;;16.80;79.40;;;;;;4941773;28;20369;-72
2023/06/17 01:25:49;;;;;;;14.98;9.07;;;16.80;79.90;;;;;;4942513;29;20078;-72
2023/06/17 01:28:16;;;;;;;13.00;8.57;;;16.80;80.50;;;;;;4953943;28;20016;-72
2023/06/17 01:30:44;;;;;;;9.45;7.90;;;16.80;80.90;;;;;;4943383;28;20035;-72
2023/06/17 01:33:11;;;;;;;9.70;8.30;;;16.80;81.20;;;;;;4948191;28;20024;-73
2023/06/17 01:35:40;;;;;;;12.82;8.30;;;16.80;81.50;;;;;;4948155;29;20098;-72
2023/06/17 01:38:14;;;;;;;11.40;8.38;;;16.80;82.10;;;;;;4935723;29;20020;-72
2023/06/17 01:40:43;;;;;;;14.05;8.60;;;16.70;82.70;;;;;;4946717;29;20027;-73
2023/06/17 01:43:11;;;;;;;14.57;8.80;;;16.70;83.60;;;;;;4940483;29;20206;-72
2023/06/17 01:45:39;;;;;;;12.23;8.15;;;16.70;84.20;;;;;;4953659;28;20027;-73
2023/06/17 01:48:05;;;;;;;12.15;9.70;;;16.70;84.70;;;;;;4952418;28;20111;-72
2023/06/17 01:50:31;;;;;;;15.77;9.45;;;16.60;85.20;;;;;;4951597;28;20034;-73
2023/06/17 01:52:56;;;;;;;12.55;9.98;;;16.60;85.80;;;;;;4952969;28;20020;-73
2023/06/17 01:55:22;;;;;;;11.57;9.30;;;16.60;86.40;;;;;;4953560;28;20015;-72
2023/06/17 01:57:48;;;;;;;15.80;10.40;;;16.60;87.00;;;;;;4953354;28;20051;-72
2023/06/17 02:00:14;;;;;;;14.18;9.63;;;16.60;87.70;;;;;;4952711;28;20509;-72
2023/06/17 02:02:39;;;;;;;16.35;10.00;;;16.50;88.40;;;;;;4950140;29;20482;-72
2023/06/17 02:05:06;;;;;;;13.57;9.82;;;16.50;88.80;;;;;;4953292;29;20019;-72
2023/06/17 02:07:31;;;;;;;13.95;9.77;;;16.50;89.30;;;;;;4949957;28;20019;-72
2023/06/17 02:09:57;;;;;;;18.88;10.30;;;16.50;89.90;;;;;;4951097;28;20788;-72
2023/06/17 02:12:24;;;;;;;15.98;10.85;;;16.50;90.30;;;;;;4949896;29;20019;-73
2023/06/17 02:14:50;;;;;;;16.08;11.43;;;16.40;90.60;;;;;;4941146;28;20107;-72
2023/06/17 02:17:16;;;;;;;15.38;11.38;;;16.40;91.00;;;;;;4953254;28;20523;-72
2023/06/17 02:19:42;;;;;;;17.23;12.25;;;16.40;91.30;;;;;;4947966;28;20074;-72
2023/06/17 02:22:08;;;;;;;16.75;11.75;;;16.40;92.20;;;;;;4946713;29;20018;-72
2023/06/17 02:24:33;;;;;;;17.48;12.50;;;16.40;92.40;;;;;;4945710;28;20058;-72
2023/06/17 02:26:59;;;;;;;15.10;12.10;;;16.40;92.90;;;;;;4952369;28;20790;-72
2023/06/17 02:29:25;;;;;;;16.60;12.77;;;16.30;93.40;;;;;;4953031;28;20027;-72
2023/06/17 02:31:51;;;;;;;19.92;13.18;;;16.30;93.90;;;;;;4949554;28;20066;-72
2023/06/17 02:34:17;;;;;;;21.27;13.60;;;16.30;94.50;;;;;;4948906;28;20082;-72
2023/06/17 02:36:43;;;;;;;17.67;13.30;;;16.30;95.10;;;;;;4943498;28;20023;-72
2023/06/17 02:39:09;;;;;;;17.50;13.40;;;16.20;95.70;;;;;;4952522;29;20085;-72
2023/06/17 02:41:34;;;;;;;20.65;13.13;;;16.20;96.30;;;;;;4944855;28;20122;-72
2023/06/17 02:44:00;;;;;;;23.17;13.05;;;16.20;97.10;;;;;;4945547;28;20024;-72
2023/06/17 02:46:25;;;;;;;21.67;14.27;;;16.20;97.70;;;;;;4948410;28;20102;-72
2023/06/17 02:48:51;;;;;;;18.75;14.30;;;16.20;98.60;;;;;;4939313;29;20095;-72
2023/06/17 02:51:17;;;;;;;19.98;14.80;;;16.20;99.50;;;;;;4948862;28;20024;-72
2023/06/17 02:53:43;;;;;;;19.60;14.80;;;16.10;99.90;;;;;;4946520;28;20467;-72
2023/06/17 02:56:09;;;;;;;18.95;14.40;;;16.10;99.90;;;;;;4936353;28;20090;-72
2023/06/17 02:58:35;;;;;;;19.63;15.20;;;16.10;99.90;;;;;;4944772;29;20118;-72
2023/06/17 03:01:01;;;;;;;21.50;15.35;;;16.00;99.90;;;;;;4951995;28;20463;-72
2023/06/17 03:03:33;;;;;;;25.70;16.27;;;16.00;99.90;;;;;;4951650;28;20027;-72
2023/06/17 03:06:07;;;;;;;24.88;17.20;;;16.00;99.90;;;;;;4949992;28;20430;-72
2023/06/17 03:08:33;;;;;;;22.95;15.57;;;15.90;99.90;;;;;;4949784;28;20036;-72
2023/06/17 03:11:00;;;;;;;23.90;15.43;;;15.90;99.90;;;;;;4948148;28;20094;-72
2023/06/17 03:13:28;;;;;;;20.75;14.77;;;15.90;99.90;;;;;;4947720;28;20489;-72
2023/06/17 03:15:55;;;;;;;20.55;14.98;;;15.90;99.90;;;;;;4939470;28;20356;-72
2023/06/17 03:18:21;;;;;;;21.95;14.90;;;15.90;99.90;;;;;;4951614;28;20031;-72
2023/06/17 03:20:49;;;;;;;20.90;14.43;;;15.90;99.90;;;;;;4952417;28;20029;-72
2023/06/17 03:23:20;;;;;;;21.33;14.05;;;15.80;99.90;;;;;;4952054;28;20023;-72
2023/06/17 03:25:47;;;;;;;19.52;14.32;;;15.90;99.90;;;;;;4935631;28;20062;-73
2023/06/17 03:28:13;;;;;;;22.33;15.30;;;15.80;99.90;;;;;;4948826;29;20023;-73
2023/06/17 03:30:42;;;;;;;21.35;14.48;;;15.80;99.90;;;;;;4944544;28;20103;-72
2023/06/17 03:33:12;;;;;;;20.58;15.68;;;15.80;99.90;;;;;;4944662;29;20079;-72
2023/06/17 03:35:37;;;;;;;22.67;17.05;;;15.80;99.90;;;;;;4951296;28;20386;-72
2023/06/17 03:38:04;;;;;;;24.30;17.52;;;15.80;99.90;;;;;;4950088;28;20107;-73
2023/06/17 03:40:30;;;;;;;26.23;18.45;;;15.80;99.90;;;;;;4955339;28;20043;-73
2023/06/17 03:42:56;;;;;;;27.17;18.65;;;15.80;99.90;;;;;;4951052;28;20047;-73
2023/06/17 03:45:22;;;;;;;31.55;18.65;;;15.80;99.90;;;;;;4946880;29;20027;-72
2023/06/17 03:47:48;;;;;;;25.17;19.48;;;15.80;99.90;;;;;;4948761;28;20019;-72
2023/06/17 03:50:13;;;;;;;25.17;19.02;;;15.80;99.90;;;;;;4947111;28;20428;-72
2023/06/17 03:52:39;;;;;;;27.77;19.42;;;15.80;99.90;;;;;;4943576;28;20034;-72
2023/06/17 03:55:05;;;;;;;27.08;20.15;;;15.90;99.90;;;;;;4939887;29;20050;-72
2023/06/17 03:57:31;;;;;;;27.10;19.88;;;15.90;99.90;;;;;;4942355;29;20047;-72
2023/06/17 03:59:57;;;;;;;30.15;20.25;;;15.90;99.90;;;;;;4954932;28;20050;-72
2023/06/17 04:02:23;;;;;;;30.20;20.88;;;15.90;99.90;;;;;;4954822;29;20034;-71
2023/06/17 04:04:52;;;;;;;29.55;21.33;;;15.90;99.90;;;;;;4955925;28;20015;-71
2023/06/17 04:07:18;;;;;;;31.63;22.58;;;15.90;99.90;;;;;;4953048;28;20023;-71
2023/06/17 04:09:44;;;;;;;28.13;21.15;;;15.90;99.90;;;;;;4944564;28;20031;-71
2023/06/17 04:12:09;;;;;;;29.83;21.92;;;16.00;99.90;;;;;;4943769;29;20063;-71
2023/06/17 04:14:35;;;;;;;29.05;21.50;;;16.00;99.90;;;;;;4951284;29;20380;-71
2023/06/17 04:17:01;;;;;;;34.45;23.50;;;16.00;99.90;;;;;;4952214;28;20078;-71
2023/06/17 04:19:27;;;;;;;30.30;23.35;;;16.00;99.90;;;;;;4955421;28;20023;-71
2023/06/17 04:21:53;;;;;;;31.63;22.75;;;16.00;99.90;;;;;;4954196;28;20038;-71
2023/06/17 04:24:18;;;;;;;31.55;24.63;;;16.00;99.90;;;;;;4948033;29;20630;-71
2023/06/17 04:26:44;;;;;;;32.72;24.23;;;16.10;99.90;;;;;;4951630;28;20027;-72
2023/06/17 04:29:11;;;;;;;30.98;23.17;;;16.10;99.90;;;;;;4948659;28;20039;-72
2023/06/17 04:31:40;;;;;;;32.53;23.08;;;16.10;99.90;;;;;;4951127;28;20035;-71
2023/06/17 04:34:06;;;;;;;32.03;23.73;;;16.10;99.90;;;;;;4944342;29;20022;-72
2023/06/17 04:36:32;;;;;;;29.98;23.55;;;16.20;99.90;;;;;;4954379;28;20106;-71
2023/06/17 04:38:58;;;;;;;31.48;24.73;;;16.20;99.90;;;;;;4954711;28;20439;-72
2023/06/17 04:41:26;;;;;;;31.30;23.75;;;16.30;99.90;;;;;;4954855;28;20498;-72
2023/06/17 04:43:53;;;;;;;31.70;24.63;;;16.30;99.90;;;;;;4950614;28;20073;-72
2023/06/17 04:46:20;;;;;;;31.65;25.10;;;16.30;99.90;;;;;;4946913;28;20044;-71
2023/06/17 04:48:47;;;;;;;33.10;24.17;;;16.30;99.90;;;;;;4952064;29;20418;-71
2023/06/17 04:51:12;;;;;;;31.60;23.90;;;16.30;99.90;;;;;;4951326;28;20103;-72
2023/06/17 04:53:39;;;;;;;32.42;25.17;;;16.30;99.90;;;;;;4942078;29;20119;-72
2023/06/17 04:56:06;;;;;;;30.40;23.75;;;16.30;99.90;;;;;;4945170;28;20074;-72
2023/06/17 04:58:32;;;;;;;29.50;23.42;;;16.30;99.90;;;;;;4953618;28;20023;-71
2023/06/17 05:00:58;;;;;;;28.45;22.92;;;16.40;99.90;;;;;;4953134;28;20110;-72
2023/06/17 05:03:23;;;;;;;30.48;24.42;;;16.40;99.90;;;;;;4946692;28;20028;-72
2023/06/17 05:05:50;;;;;;;29.73;23.33;;;16.40;99.90;;;;;;4947865;29;20059;-72
2023/06/17 05:08:15;;;;;;;28.58;21.52;;;16.40;99.90;;;;;;4949181;29;20074;-72
2023/06/17 05:10:41;;;;;;;27.02;21.67;;;16.50;99.90;;;;;;4948591;28;20031;-72
2023/06/17 05:13:07;;;;;;;30.42;22.73;;;16.50;99.90;;;;;;4938996;29;20047;-72
2023/06/17 05:15:32;;;;;;;29.02;23.27;;;16.60;99.90;;;;;;4941321;29;20050;-72
2023/06/17 05:17:58;;;;;;;30.60;23.05;;;16.60;99.90;;;;;;4947125;28;20043;-72
2023/06/17 05:20:23;;;;;;;29.27;21.80;;;16.70;99.90;;;;;;4947773;29;20027;-72
2023/06/17 05:22:49;;;;;;;24.65;19.25;;;16.70;99.90;;;;;;4946590;29;20067;-72
2023/06/17 05:25:15;;;;;;;28.88;21.52;;;16.70;99.90;;;;;;4941658;28;20107;-72
2023/06/17 05:27:40;;;;;;;30.33;21.15;;;16.80;99.90;;;;;;4937359;29;20028;-72
2023/06/17 05:30:06;;;;;;;26.60;20.65;;;16.80;99.90;;;;;;4937481;29;20046;-72
2023/06/17 05:32:32;;;;;;;24.52;18.75;;;16.90;99.90;;;;;;4942352;29;20103;-72
2023/06/17 05:34:57;;;;;;;23.77;18.88;;;16.90;99.90;;;;;;4953535;28;20110;-72
2023/06/17 05:37:23;;;;;;;19.17;15.80;;;17.00;99.90;;;;;;4953830;28;20038;-72
2023/06/17 05:39:49;;;;;;;21.15;15.00;;;17.10;99.90;;;;;;4950922;28;20118;-72
2023/06/17 05:42:14;;;;;;;21.30;14.30;;;17.10;99.90;;;;;;4946320;29;20047;-72
2023/06/17 05:44:40;;;;;;;15.70;12.98;;;17.10;99.90;;;;;;4939306;28;20027;-72
2023/06/17 05:47:06;;;;;;;17.75;12.38;;;17.10;99.90;;;;;;4950462;29;20407;-72
2023/06/17 05:49:31;;;;;;;17.20;12.07;;;17.20;99.90;;;;;;4953584;29;20478;-72
2023/06/17 05:51:57;;;;;;;13.55;10.95;;;17.20;99.90;;;;;;4950932;28;20031;-72
2023/06/17 05:54:22;;;;;;;14.90;11.38;;;17.20;99.90;;;;;;4950924;28;20101;-72
2023/06/17 05:56:50;;;;;;;13.90;10.98;;;17.30;99.90;;;;;;4936724;29;20090;-72
2023/06/17 05:59:15;;;;;;;14.48;11.68;;;17.30;99.90;;;;;;4950722;28;20031;-72
2023/06/17 06:01:41;;;;;;;13.45;11.77;;;17.40;99.90;;;;;;4953665;28;20023;-72
2023/06/17 06:04:06;;;;;;;12.77;10.15;;;17.50;99.90;;;;;;4946486;28;20048;-74
2023/06/17 06:06:32;;;;;;;14.48;8.95;;;17.50;99.90;;;;;;4962284;28;20083;-74
2023/06/17 06:08:58;;;;;;;9.00;7.82;;;17.50;99.90;;;;;;4935959;29;20044;-75
2023/06/17 06:11:23;;;;;;;11.57;7.60;;;17.60;99.90;;;;;;4951166;29;20030;-75
2023/06/17 06:13:49;;;;;;;12.55;7.13;;;17.70;99.90;;;;;;4951864;28;20074;-75
2023/06/17 06:16:15;;;;;;;12.48;6.80;;;17.70;99.90;;;;;;4953550;28;20394;-74
2023/06/17 06:18:41;;;;;;;9.60;6.68;;;17.70;99.90;;;;;;4949737;28;20023;-75
2023/06/17 06:21:06;;;;;;;9.77;6.55;;;17.80;99.90;;;;;;4949323;28;20467;-75
2023/06/17 06:23:33;;;;;;;9.73;7.22;;;17.90;99.90;;;;;;4953112;28;20050;-75
2023/06/17 06:25:59;;;;;;;9.50;6.72;;;18.00;99.90;;;;;;4953141;28;20047;-75
2023/06/17 06:28:24;;;;;;;9.27;7.13;;;18.00;99.90;;;;;;4933412;29;20034;-74
2023/06/17 06:30:50;;;;;;;11.30;6.85;;;18.20;99.90;;;;;;4937392;29;20059;-75
2023/06/17 06:33:16;;;;;;;10.45;6.90;;;18.30;99.90;;;;;;4938366;29;20045;-75
2023/06/17 06:35:42;;;;;;;10.75;6.38;;;18.40;99.90;;;;;;4938152;28;20038;-75
2023/06/17 06:38:08;;;;;;;12.15;6.55;;;18.60;99.90;;;;;;4943493;29;20024;-75
2023/06/17 06:40:33;;;;;;;10.13;6.75;;;18.70;99.90;;;;;;4944715;29;20020;-75
2023/06/17 06:42:59;;;;;;;8.85;5.70;;;18.90;99.90;;;;;;4941745;28;20066;-72
2023/06/17 06:45:25;;;;;;;7.70;5.85;;;19.00;99.90;;;;;;4950316;29;20030;-73
2023/06/17 06:47:50;;;;;;;11.95;6.85;;;19.10;99.90;;;;;;4952135;29;20102;-75
2023/06/17 06:50:16;;;;;;;9.40;6.10;;;19.30;99.90;;;;;;4943760;28;20111;-76
2023/06/17 06:52:41;;;;;;;8.70;5.68;;;19.40;99.90;;;;;;4952702;28;20031;-76
2023/06/17 06:55:07;;;;;;;7.68;6.22;;;19.60;99.80;;;;;;4953357;28;20103;-76
2023/06/17 06:57:33;;;;;;;10.38;6.00;;;19.70;99.10;;;;;;4951203;28;20016;-76
2023/06/17 06:59:59;;;;;;;9.70;6.15;;;19.80;98.30;;;;;;4952661;28;20047;-76
2023/06/17 07:02:24;;;;;;;8.43;5.55;;;20.00;98.10;;;;;;4951151;28;20394;-76
2023/06/17 07:04:51;;;;;;;10.07;5.68;;;20.10;97.60;;;;;;4949469;28;20031;-76
2023/06/17 07:07:17;;;;;;;11.98;5.72;;;20.30;97.10;;;;;;4947113;28;20311;-74
2023/06/17 07:09:42;;;;;;;8.25;5.68;;;20.50;96.70;;;;;;4952222;28;20043;-76
2023/06/17 07:12:10;;;;;;;7.25;5.88;;;20.70;96.00;;;;;;4950651;28;20027;-75
2023/06/17 07:14:35;;;;;;;8.95;5.70;;;20.80;94.90;;;;;;4953367;29;20023;-76
2023/06/17 07:17:01;;;;;;;8.50;5.95;;;21.00;93.80;;;;;;4956278;28;20038;-76
2023/06/17 07:19:27;;;;;;;7.47;5.88;;;21.20;92.90;;;;;;4956476;28;20055;-76
2023/06/17 07:21:52;;;;;;;8.57;5.45;;;21.30;92.30;;;;;;4953380;28;20038;-76
2023/06/17 07:24:18;;;;;;;7.70;5.72;;;21.50;91.60;;;;;;4946315;29;20095;-76
2023/06/17 07:26:44;;;;;;;8.35;5.90;;;21.70;91.00;;;;;;4956870;28;20102;-76
2023/06/17 07:29:09;;;;;;;8.55;5.47;;;21.90;89.60;;;;;;4955890;28;20039;-76
2023/06/17 07:31:35;;;;;;;8.98;5.60;;;22.00;88.20;;;;;;4954693;28;20617;-76
2023/06/17 07:34:01;;;;;;;7.00;5.20;;;22.20;86.50;;;;;;4953539;28;20450;-76
2023/06/17 07:36:26;;;;;;;9.52;5.95;;;22.40;85.60;;;;;;4955688;28;20023;-76
2023/06/17 07:38:52;;;;;;;11.65;5.93;;;22.50;82.90;;;;;;4956486;28;20055;-76
2023/06/17 07:41:18;;;;;;;9.20;5.82;;;22.60;82.50;;;;;;4953961;28;20051;-76
2023/06/17 07:43:44;;;;;;;10.05;5.45;;;22.80;80.60;;;;;;4956300;28;20438;-77
2023/06/17 07:46:09;;;;;;;7.93;5.15;;;22.90;80.30;;;;;;4954366;28;20024;-77
2023/06/17 07:48:35;;;;;;;10.38;5.60;;;23.10;79.70;;;;;;4955861;29;20086;-77
2023/06/17 07:51:01;;;;;;;8.77;5.90;;;23.30;79.20;;;;;;4956192;28;20037;-77
2023/06/17 07:53:26;;;;;;;8.02;5.63;;;23.50;77.60;;;;;;4956185;28;20027;-77
2023/06/17 07:55:53;;;;;;;10.02;6.32;;;23.70;76.40;;;;;;4956168;28;20030;-77
2023/06/17 07:58:19;;;;;;;10.70;6.35;;;23.90;75.00;;;;;;4956137;28;20058;-77
2023/06/17 08:00:45;;;;;;;10.35;6.20;;;24.00;74.60;;;;;;4956416;28;20322;-77
2023/06/17 08:03:12;;;;;;;12.57;6.45;;;24.10;74.00;;;;;;4950929;28;20031;-77
2023/06/17 08:05:37;;;;;;;9.68;5.68;;;24.20;73.00;;;;;;4955922;28;20015;-81
2023/06/17 08:08:03;;;;;;;9.98;6.50;;;24.30;72.90;;;;;;4949049;28;20498;-78
2023/06/17 08:10:28;;;;;;;9.32;6.22;;;24.40;72.60;;;;;;4958226;28;20032;-76
2023/06/17 08:12:54;;;;;;;12.98;5.40;;;24.50;71.90;;;;;;4954131;28;20170;-77
2023/06/17 08:15:20;;;;;;;10.38;5.53;;;24.70;71.30;;;;;;4950272;29;20058;-75
2023/06/17 08:17:48;;;;;;;9.68;5.43;;;24.90;69.80;;;;;;4949195;29;20110;-74
2023/06/17 08:20:16;;;;;;;7.13;5.25;;;25.10;68.20;;;;;;4949104;29;20062;-75
2023/06/17 08:22:41;;;;;;;7.15;5.25;;;25.20;66.70;;;;;;4943052;28;20011;-75
2023/06/17 08:25:07;;;;;;;7.28;5.18;;;25.30;65.30;;;;;;4955561;28;20023;-76
2023/06/17 08:27:33;;;;;;;6.60;5.10;;;25.40;64.70;;;;;;4954568;28;20050;-76
2023/06/17 08:29:59;;;;;;;8.57;4.80;;;25.60;63.80;;;;;;4955279;28;20410;-76
2023/06/17 08:32:25;;;;;;;8.18;4.93;;;25.80;62.90;;;;;;4952776;28;20098;-74
2023/06/17 08:34:50;;;;;;;7.55;4.68;;;25.90;61.50;;;;;;4942319;28;20814;-76
2023/06/17 08:37:16;;;;;;;8.75;4.63;;;26.10;59.90;;;;;;4948326;29;20023;-75
2023/06/17 08:39:42;;;;;;;7.75;4.85;;;26.30;59.20;;;;;;4955173;28;20102;-74
2023/06/17 08:42:08;;;;;;;10.00;4.43;;;26.40;58.80;;;;;;4953829;29;20382;-75
2023/06/17 08:44:38;;;;;;;6.78;4.55;;;26.50;57.60;;;;;;4952742;28;20041;-75
2023/06/17 08:47:05;;;;;;;6.15;4.22;;;26.70;57.40;;;;;;4945355;29;20023;-75
2023/06/17 08:49:31;;;;;;;5.07;4.45;;;26.90;56.40;;;;;;4953458;28;20039;-75
2023/06/17 08:51:59;;;;;;;5.63;4.50;;;26.90;55.40;;;;;;4952658;28;20082;-75
2023/06/17 08:54:27;;;;;;;6.53;3.90;;;26.90;55.00;;;;;;4952001;28;20106;-75
2023/06/17 08:56:53;;;;;;;5.82;4.25;;;26.90;52.80;;;;;;4955135;28;20038;-75
2023/06/17 08:59:19;;;;;;;5.72;4.40;;;26.90;51.70;;;;;;4954981;28;20034;-75
2023/06/17 09:01:47;;;;;;;6.00;4.38;;;26.90;51.50;;;;;;4950291;28;20027;-75
2023/06/17 09:04:14;;;;;;;6.35;4.05;;;26.90;51.50;;;;;;4947804;28;20459;-75
2023/06/17 09:06:39;;;;;;;5.03;4.10;;;26.90;50.60;;;;;;4946029;28;20499;-75
2023/06/17 09:09:05;;;;;;;4.47;4.03;;;26.80;50.30;;;;;;4954133;28;20099;-75
2023/06/17 09:11:32;;;;;;;6.03;4.00;;;27.00;50.70;;;;;;4954623;28;20027;-75
2023/06/17 09:14:00;;;;;;;8.60;4.30;;;27.20;50.10;;;;;;4939205;28;20427;-75
2023/06/17 09:16:35;;;;;;;7.53;4.25;;;27.50;49.60;;;;;;4946639;29;20037;-76
2023/06/17 09:19:08;;;;;;;4.40;3.97;;;27.80;49.40;;;;;;4936202;29;20031;-76
2023/06/17 09:21:35;;;;;;;6.22;4.07;;;27.90;48.20;;;;;;4948515;29;20027;-77
2023/06/17 09:24:03;;;;;;;7.10;3.95;;;27.90;47.90;;;;;;4953302;28;20506;-76
2023/06/17 09:26:33;;;;;;;4.65;3.85;;;28.00;47.60;;;;;;4946884;28;20054;-77
2023/06/17 09:29:04;;;;;;;5.40;3.65;;;27.90;46.00;;;;;;4947407;29;20035;-76
2023/06/17 09:31:31;;;;;;;5.00;3.63;;;28.00;46.20;;;;;;4952241;28;20027;-76
2023/06/17 09:33:57;;;;;;;6.40;3.90;;;28.20;46.00;;;;;;4953615;28;20395;-76
2023/06/17 09:36:25;;;;;;;4.82;3.90;;;28.40;45.50;;;;;;4954021;28;20031;-77
2023/06/17 09:38:51;;;;;;;5.55;3.80;;;28.60;45.40;;;;;;4950199;28;20042;-78
2023/06/17 09:41:18;;;;;;;8.18;4.20;;;28.90;45.00;;;;;;4950158;29;20087;-77
2023/06/17 09:43:54;;;;;;;7.90;4.45;;;28.90;44.70;;;;;;4936314;29;20043;-77
2023/06/17 09:46:35;;;;;;;6.15;3.92;;;28.90;43.80;;;;;;4938769;28;20043;-77
2023/06/17 09:49:06;;;;;;;6.40;3.83;;;28.90;44.00;;;;;;4953591;28;20039;-78
2023/06/17 09:51:36;;;;;;;5.22;4.20;;;28.90;44.00;;;;;;4952565;28;20027;-78
2023/06/17 09:54:02;;;;;;;7.05;4.68;;;29.10;44.30;;;;;;4941538;28;20035;-77
2023/06/17 09:56:31;;;;;;;7.53;4.15;;;28.90;44.10;;;;;;4943980;29;20054;-76
2023/06/17 09:58:57;;;;;;;8.25;4.70;;;28.90;44.40;;;;;;4946712;29;20116;-77
2023/06/17 10:01:29;;;;;;;7.70;4.18;;;28.90;44.30;;;;;;4953622;28;20031;-77
2023/06/17 10:03:54;;;;;;;10.88;4.60;;;29.00;44.30;;;;;;4953614;28;20379;-78
2023/06/17 10:06:21;;;;;;;9.13;4.28;;;29.00;44.50;;;;;;4953171;28;20020;-77
2023/06/17 10:08:48;;;;;;;9.15;4.40;;;29.10;44.30;;;;;;4953712;28;20020;-77
2023/06/17 10:11:18;;;;;;;8.75;3.97;;;29.20;44.20;;;;;;4953003;28;20027;-77
2023/06/17 10:13:59;;;;;;;8.88;4.82;;;29.40;44.40;;;;;;4945715;28;20044;-77
2023/06/17 10:16:27;;;;;;;7.10;4.30;;;29.70;44.30;;;;;;4946120;29;20475;-76
2023/06/17 10:18:54;;;;;;;10.18;4.40;;;29.90;43.80;;;;;;4949798;28;20478;-77
2023/06/17 10:21:23;;;;;;;6.90;4.38;;;30.00;43.70;;;;;;4953642;28;20024;-78
2023/06/17 10:23:50;;;;;;;7.63;4.10;;;30.20;43.40;;;;;;4953933;28;20024;-78
2023/06/17 10:26:17;;;;;;;6.63;4.10;;;30.20;43.50;;;;;;4954001;28;20034;-78
2023/06/17 10:29:06;;;;;;;7.63;4.72;;;30.40;43.30;;;;;;4961132;28;20534;-79
2023/06/17 10:31:42;;;;;;;10.23;4.97;;;30.40;42.70;;;;;;4944044;29;20032;-80
2023/06/17 10:34:20;;;;;;;6.03;4.70;;;30.10;42.90;;;;;;4953646;29;20079;-79
2023/06/17 10:36:57;;;;;;;9.35;4.47;;;30.10;42.90;;;;;;4957602;28;20035;-79
2023/06/17 10:39:22;;;;;;;5.25;4.40;;;30.00;42.70;;;;;;4946466;29;20019;-79
2023/06/17 10:41:50;;;;;;;6.75;3.95;;;30.00;42.90;;;;;;4958773;28;20059;-79
2023/06/17 10:44:29;;;;;;;10.18;4.53;;;29.90;42.90;;;;;;4960223;28;20034;-79
2023/06/17 10:46:56;;;;;;;8.57;4.47;;;29.80;43.00;;;;;;4950156;29;20019;-79
2023/06/17 10:49:22;;;;;;;6.10;4.32;;;29.80;43.10;;;;;;4961490;28;20039;-79
2023/06/17 10:51:49;;;;;;;7.25;4.10;;;29.80;43.10;;;;;;4961239;28;20096;-79
2023/06/17 10:54:15;;;;;;;8.95;4.30;;;29.90;43.30;;;;;;4962000;28;20063;-79
2023/06/17 10:56:53;;;;;;;6.00;4.15;;;30.00;43.10;;;;;;4961495;28;20086;-82
2023/06/17 10:59:30;;;;;;;7.43;4.70;;;30.10;42.90;;;;;;4961196;28;20039;-79
2023/06/17 11:02:01;;;;;;;8.27;4.45;;;30.30;42.10;;;;;;4955064;28;20019;-79
2023/06/17 11:04:31;;;;;;;8.00;4.65;;;30.40;41.60;;;;;;4961249;28;20034;-79
2023/06/17 11:06:58;;;;;;;10.55;4.22;;;30.20;41.20;;;;;;4962369;28;20027;-79
2023/06/17 11:09:30;;;;;;;6.43;4.07;;;30.00;41.50;;;;;;4957632;29;20031;-80
2023/06/17 11:11:57;;;;;;;9.50;4.63;;;29.90;41.50;;;;;;4965136;28;20027;-80
2023/06/17 11:14:26;;;;;;;7.85;4.47;;;30.00;41.80;;;;;;4965006;28;20055;-79
2023/06/17 11:16:51;;;;;;;5.57;3.95;;;30.10;41.80;;;;;;4964593;28;20042;-79
2023/06/17 11:19:17;;;;;;;5.65;4.30;;;30.30;41.70;;;;;;4963899;28;20027;-80
2023/06/17 11:21:43;;;;;;;6.63;4.55;;;30.50;41.00;;;;;;4963494;28;20475;-80
2023/06/17 11:24:10;;;;;;;12.75;4.10;;;30.50;41.00;;;;;;4965232;28;20105;-79
2023/06/17 11:26:37;;;;;;;6.55;4.03;;;30.50;40.70;;;;;;4964615;28;20106;-79
2023/06/17 11:29:04;;;;;;;7.18;4.03;;;30.50;40.90;;;;;;4963718;28;20035;-80
2023/06/17 11:31:36;;;;;;;10.10;4.32;;;30.70;40.70;;;;;;4959527;29;20072;-80
2023/06/17 11:34:02;;;;;;;5.72;3.90;;;30.70;40.60;;;;;;4944829;29;20037;-80
2023/06/17 11:36:28;;;;;;;5.72;4.30;;;30.70;40.20;;;;;;4950283;29;20078;-78
2023/06/17 11:38:55;;;;;;;5.25;3.90;;;30.60;40.10;;;;;;4960564;28;20106;-79
2023/06/17 11:41:23;;;;;;;6.70;3.85;;;30.70;39.90;;;;;;4962133;28;20461;-79
2023/06/17 11:43:50;;;;;;;6.30;3.92;;;30.70;39.60;;;;;;4960801;28;20035;-78
2023/06/17 11:46:22;;;;;;;6.97;3.80;;;30.80;39.50;;;;;;4961411;28;20121;-79
2023/06/17 11:48:48;;;;;;;5.05;3.85;;;30.80;39.00;;;;;;4952559;28;20019;-79
2023/06/17 11:51:18;;;;;;;7.75;4.47;;;30.70;39.30;;;;;;4961884;28;20027;-79
2023/06/17 11:53:46;;;;;;;5.80;4.28;;;30.70;39.10;;;;;;4960115;28;20055;-79
2023/06/17 11:56:14;;;;;;;6.00;4.07;;;30.80;39.40;;;;;;4961850;28;20050;-78
2023/06/17 11:58:42;;;;;;;10.43;4.00;;;31.10;39.20;;;;;;4950296;29;20019;-79
2023/06/17 12:01:08;;;;;;;7.63;3.97;;;31.20;39.40;;;;;;4959773;28;20036;-78
2023/06/17 12:03:35;;;;;;;4.97;3.97;;;31.40;38.80;;;;;;4960071;28;20035;-79
2023/06/17 12:06:01;;;;;;;7.90;3.88;;;31.40;38.80;;;;;;4959750;28;20462;-74
2023/06/17 12:08:33;;;;;;;6.80;3.92;;;31.50;39.00;;;;;;4956878;28;20022;-79
2023/06/17 12:11:25;;;;;;;9.00;4.38;;;31.70;38.80;;;;;;4956834;28;20035;-78
2023/06/17 12:13:50;;;;;;;4.55;4.10;;;31.70;38.10;;;;;;4944633;29;20024;-79
2023/06/17 12:16:31;;;;;;;7.55;4.45;;;31.50;38.80;;;;;;4952081;29;20095;-78
2023/06/17 12:18:57;;;;;;;7.80;4.07;;;31.50;38.70;;;;;;4955443;28;20719;-77
2023/06/17 12:21:24;;;;;;;8.23;4.40;;;31.50;38.40;;;;;;4949902;29;20026;-77
2023/06/17 12:23:51;;;;;;;5.88;3.70;;;31.40;38.30;;;;;;4952688;28;20031;-79
2023/06/17 12:26:18;;;;;;;8.00;4.20;;;31.40;38.60;;;;;;4954100;28;20066;-77
2023/06/17 12:28:44;;;;;;;7.47;3.97;;;31.40;38.80;;;;;;4947878;29;20424;-73
2023/06/17 12:31:09;;;;;;;4.90;3.67;;;31.60;38.60;;;;;;4951617;28;20487;-73
2023/06/17 12:33:36;;;;;;;4.97;4.10;;;31.70;38.30;;;;;;4955616;28;20043;-73
2023/06/17 12:36:03;;;;;;;9.13;4.10;;;31.70;38.80;;;;;;4955391;28;20656;-73
2023/06/17 12:38:29;;;;;;;6.47;3.72;;;31.70;38.70;;;;;;4955142;28;20244;-74